Time;durP1;ratioP1;P1;durP2;ratioP2;P2;SDS_P1;SDS_P2;PMS_P1;PMS_P2;Temp;Humidity;BMP_temperature;BMP_pressure;BME280_temperature;BME280_humidity;BME280_pressure;Samples;Min_cycle;Max_cycle;Signal;HPM_P1;HPM_P2
2022/08/11 00:00:11;;;;;;;8.03;5.70;;;;;;;19.14;71.59;99759.42;1719229;83;21068;-42
2022/08/11 00:02:49;;;;;;;9.53;6.28;;;;;;;19.02;71.86;99766.81;1719353;83;21092;-42
2022/08/11 00:05:19;;;;;;;11.12;6.08;;;;;;;18.94;72.31;99766.07;1718929;83;21037;-42
2022/08/11 00:07:53;;;;;;;7.35;5.40;;;;;;;18.89;72.63;99770.63;1719447;83;20996;-43
2022/08/11 00:10:26;;;;;;;8.33;5.95;;;;;;;18.85;72.87;99765.76;1719251;83;20953;-42
2022/08/11 00:13:00;;;;;;;8.88;6.00;;;;;;;18.82;73.17;99778.16;1719361;83;21140;-42
2022/08/11 00:15:38;;;;;;;8.00;5.97;;;;;;;18.81;73.49;99775.22;1719115;83;21148;-42
2022/08/11 00:18:05;;;;;;;9.50;6.40;;;;;;;18.83;73.67;99789.34;1718209;83;20961;-42
2022/08/11 00:20:38;;;;;;;9.05;6.45;;;;;;;18.84;73.88;99781.27;1719163;83;21076;-42
2022/08/11 00:23:11;;;;;;;8.33;6.85;;;;;;;18.85;73.93;99785.58;1719316;83;21081;-42
2022/08/11 00:25:50;;;;;;;8.85;6.65;;;;;;;18.83;74.07;99781.09;1719215;83;21032;-42
2022/08/11 00:28:32;;;;;;;11.90;7.25;;;;;;;18.79;74.27;99783.07;1719724;83;21207;-42
2022/08/11 00:31:03;;;;;;;11.78;6.85;;;;;;;18.76;74.53;99790.75;1719144;83;21032;-42
2022/08/11 00:33:41;;;;;;;8.85;6.67;;;;;;;18.79;74.67;99795.43;1718492;83;21023;-42
2022/08/11 00:36:11;;;;;;;9.03;6.53;;;;;;;18.79;74.66;99786.59;1719197;83;21591;-42
2022/08/11 00:38:40;;;;;;;9.33;6.62;;;;;;;18.82;74.76;99789.93;1719444;83;21040;-42
2022/08/11 00:41:38;;;;;;;13.43;7.07;;;;;;;18.85;74.70;99789.70;1719414;83;21844;-42
2022/08/11 00:44:22;;;;;;;9.05;6.42;;;;;;;18.87;74.67;99784.59;1719050;83;21024;-42
2022/08/11 00:47:22;;;;;;;10.20;6.62;;;;;;;18.84;74.61;99779.89;1719165;83;20945;-42
2022/08/11 00:50:14;;;;;;;;;;;;;;;18.85;74.83;99775.97;1721808;83;20993;-42
2022/08/11 00:53:17;;;;;;;11.00;6.70;;;;;;;18.88;74.92;99780.67;1719050;83;20169;-42
2022/08/11 00:56:05;;;;;;;9.25;6.30;;;;;;;18.83;75.36;99770.11;1710739;83;21870;-42
2022/08/11 00:59:26;;;;;;;9.45;6.33;;;;;;;18.88;75.44;99762.19;1705580;83;20962;-42
2022/08/11 01:02:17;;;;;;;14.60;6.67;;;;;;;18.93;75.33;99759.59;1705479;84;20961;-42
2022/08/11 01:05:13;;;;;;;14.07;6.15;;;;;;;18.97;75.23;99759.00;1705646;84;20953;-42
2022/08/11 01:10:52;;;;;;;11.33;6.00;;;;;;;19.04;74.61;99743.22;1797260;79;22655;-42
2022/08/11 01:14:05;;;;;;;8.13;5.58;;;;;;;18.95;74.53;99740.75;1757789;80;20967;-42
2022/08/11 01:16:59;;;;;;;9.18;5.60;;;;;;;18.96;74.52;99736.23;1757629;81;21535;-42
2022/08/11 01:20:03;;;;;;;6.53;5.10;;;;;;;18.95;74.48;99720.93;1723887;83;20897;-42
2022/08/11 01:22:54;;;;;;;5.75;4.30;;;;;;;18.99;74.29;99718.14;1684099;84;20986;-42
2022/08/11 01:26:01;;;;;;;6.83;4.65;;;;;;;18.97;73.85;99713.08;1721003;83;21571;-42
2022/08/11 01:29:17;;;;;;;7.83;4.70;;;;;;;18.92;73.52;99711.36;1721242;83;21657;-42
2022/08/11 01:32:29;;;;;;;7.12;4.50;;;;;;;18.84;73.48;99722.20;1721251;83;21239;-43
2022/08/11 01:35:37;;;;;;;9.60;4.42;;;;;;;18.78;73.59;99732.09;1721081;83;21032;-43
2022/08/11 01:38:42;;;;;;;10.03;4.70;;;;;;;18.75;73.81;99731.50;1721033;83;21012;-42
2022/08/11 01:45:07;;;;;;;5.97;3.47;;;;;;;18.71;74.01;99726.64;1668342;83;21553;-43
2022/08/11 01:47:51;;;;;;;6.40;3.90;;;;;;;18.66;73.79;99731.38;1721059;83;21317;-42
2022/08/11 01:50:48;;;;;;;7.55;3.60;;;;;;;18.57;73.85;99728.32;1721092;83;21024;-43
2022/08/11 01:53:48;;;;;;;4.78;3.55;;;;;;;18.54;73.88;99737.34;1709111;83;21056;-43
2022/08/11 01:56:41;;;;;;;5.87;3.62;;;;;;;18.54;73.99;99727.73;1721067;83;21065;-42
2022/08/11 01:59:38;;;;;;;6.00;3.52;;;;;;;18.56;73.93;99734.20;1721268;83;21056;-42
2022/08/11 02:02:53;;;;;;;4.42;3.30;;;;;;;18.58;73.79;99732.63;1721004;83;23170;-43
2022/08/11 02:05:40;;;;;;;4.72;3.33;;;;;;;18.58;73.52;99744.20;1721292;83;21531;-42
2022/08/11 02:08:16;;;;;;;4.05;3.50;;;;;;;18.51;73.51;99751.86;1720648;83;21073;-42
2022/08/11 02:11:31;;;;;;;3.72;3.37;;;;;;;18.47;73.60;99746.20;1721184;83;21531;-42
2022/08/11 02:14:39;;;;;;;4.87;3.70;;;;;;;18.43;73.75;99735.84;1721117;83;21096;-42
2022/08/11 02:17:37;;;;;;;4.75;3.60;;;;;;;18.40;73.91;99736.05;1721068;83;21061;-42
2022/08/11 02:23:44;;;;;;;4.80;3.50;;;;;;;18.37;74.03;99735.48;1715230;83;20998;-42
2022/08/11 02:26:45;;;;;;;8.38;4.05;;;;;;;18.33;74.12;99737.48;1720581;83;21586;-42
2022/08/11 02:29:25;;;;;;;3.37;3.08;;;;;;;18.32;74.18;99743.37;1688092;84;21136;-42
2022/08/11 02:35:15;;;;;;;4.17;3.12;;;;;;;18.29;74.35;99733.20;1720479;83;21516;-42
2022/08/11 02:38:25;;;;;;;5.50;3.70;;;;;;;18.24;74.28;99734.41;1720616;83;21002;-42
2022/08/11 02:44:28;;;;;;;5.17;3.05;;;;;;;18.21;74.28;99730.48;1720487;83;21038;-42
2022/08/11 02:47:29;;;;;;;4.10;3.08;;;;;;;18.18;74.29;99736.00;1720672;83;21138;-42
2022/08/11 02:50:02;;;;;;;5.37;3.40;;;;;;;18.16;74.37;99737.77;1720365;83;20984;-42
2022/08/11 02:52:44;;;;;;;5.15;3.33;;;;;;;18.17;74.34;99738.55;1720847;83;21008;-42
2022/08/11 02:55:45;;;;;;;9.38;3.42;;;;;;;18.19;74.38;99743.06;1720295;83;21415;-42
2022/08/11 02:58:23;;;;;;;4.33;3.15;;;;;;;18.20;74.39;99735.78;1720506;83;21127;-42
2022/08/11 03:01:14;;;;;;;3.77;3.00;;;;;;;18.19;74.43;99737.58;1720653;83;21244;-42
2022/08/11 03:03:50;;;;;;;5.62;3.17;;;;;;;18.23;74.33;99729.50;1720611;83;20937;-42
2022/08/11 03:06:36;;;;;;;3.33;3.02;;;;;;;18.22;73.99;99718.34;1720442;83;21041;-42
2022/08/11 03:09:26;;;;;;;6.72;3.20;;;;;;;18.18;73.98;99714.05;1717819;83;20962;-43
2022/08/11 03:18:27;;;;;;;5.72;2.95;;;;;;;18.13;74.01;99719.96;1707601;84;20973;-42
2022/08/11 03:21:22;;;;;;;4.85;3.40;;;;;;;18.10;74.03;99713.33;1707530;84;21013;-43
2022/08/11 03:24:05;;;;;;;4.37;3.52;;;;;;;18.06;74.04;99716.66;1707355;84;20993;-42
2022/08/11 03:27:06;;;;;;;6.72;3.10;;;;;;;18.04;74.23;99713.55;1707581;84;20903;-42
2022/08/11 03:29:48;;;;;;;5.00;3.25;;;;;;;18.04;74.48;99710.02;1707558;84;21152;-42
2022/08/11 03:36:28;;;;;;;3.47;2.62;;;;;;;18.02;74.27;99719.23;1707712;83;27212;-42
2022/08/11 03:39:28;;;;;;;6.17;3.47;;;;;;;17.96;74.35;99716.74;1707365;84;20993;-42
2022/08/11 03:42:15;;;;;;;5.50;3.30;;;;;;;17.94;74.33;99706.16;1707494;83;21060;-42
2022/08/11 03:44:56;;;;;;;5.08;3.27;;;;;;;17.95;74.22;99702.83;1707528;83;21476;-42
2022/08/11 03:47:38;;;;;;;5.17;3.20;;;;;;;17.95;74.25;99705.57;1707215;84;20998;-42
2022/08/11 03:51:02;;;;;;;3.35;2.70;;;;;;;17.97;74.03;99710.05;1707054;84;21021;-42
2022/08/11 03:54:11;;;;;;;5.58;3.25;;;;;;;17.98;73.98;99708.29;1707729;83;21508;-42
2022/08/11 03:57:09;;;;;;;3.95;3.27;;;;;;;17.95;73.99;99704.20;1707482;83;21033;-42
2022/08/11 04:00:03;;;;;;;5.58;3.25;;;;;;;17.90;74.14;99684.05;1707422;84;21317;-42
2022/08/11 04:02:57;;;;;;;5.17;2.90;;;;;;;17.94;74.05;99686.95;1706241;84;21025;-42
2022/08/11 04:05:36;;;;;;;4.33;3.10;;;;;;;17.93;74.21;99688.13;1707548;83;21013;-42
2022/08/11 04:08:31;;;;;;;5.10;3.10;;;;;;;17.94;74.26;99698.52;1707520;83;21037;-42
2022/08/11 04:11:19;;;;;;;4.67;3.50;;;;;;;17.95;74.14;99705.57;1707001;84;21002;-42
2022/08/11 04:17:39;;;;;;;6.78;3.77;;;;;;;18.00;74.21;99720.24;1707264;84;20958;-42
2022/08/11 04:20:42;;;;;;;6.40;4.00;;;;;;;18.00;74.17;99728.47;1707119;84;20942;-42
2022/08/11 04:23:26;;;;;;;5.62;3.50;;;;;;;18.03;74.17;99725.70;1707228;83;21097;-42
2022/08/11 04:26:21;;;;;;;3.85;3.30;;;;;;;18.09;74.12;99717.84;1707389;83;21590;-42
2022/08/11 04:29:14;;;;;;;5.47;3.25;;;;;;;18.14;73.86;99709.97;1707178;84;21314;-42
2022/08/11 04:32:20;;;;;;;6.05;3.47;;;;;;;18.14;73.80;99692.72;1707424;83;21025;-42
2022/08/11 04:35:05;;;;;;;5.47;3.42;;;;;;;18.13;73.94;99700.75;1707552;83;20918;-42
2022/08/11 04:37:45;;;;;;;5.10;3.33;;;;;;;18.10;73.94;99690.00;1706795;84;20974;-42
2022/08/11 04:40:51;;;;;;;5.12;3.20;;;;;;;18.08;73.92;99690.98;1707641;83;21562;-42
2022/08/11 04:43:32;;;;;;;4.03;2.83;;;;;;;18.11;74.09;99692.91;1707367;83;21138;-42
2022/08/11 04:46:38;;;;;;;8.73;3.40;;;;;;;18.12;74.12;99706.83;1706424;84;21037;-42
2022/08/11 05:02:33;;;;;;;6.08;3.08;;;;;;;18.29;73.97;99677.72;1707432;83;21524;-42
2022/08/11 05:05:31;;;;;;;4.37;3.30;;;;;;;18.28;73.90;99677.52;1707361;84;20954;-42
2022/08/11 05:08:37;;;;;;;5.97;3.02;;;;;;;18.28;74.07;99669.29;1707284;84;21021;-42
2022/08/11 05:11:48;;;;;;;5.67;3.33;;;;;;;18.28;74.12;99665.17;1711532;83;21093;-42
2022/08/11 05:27:09;;;;;;;3.65;3.02;;;;;;;18.32;74.25;99685.72;1712971;83;21032;-42
2022/08/11 05:37:41;;;;;;;5.80;3.47;;;;;;;18.37;74.20;99710.78;1713000;83;21410;-42
2022/08/11 05:57:08;;;;;;;8.70;4.12;;;;;;;18.69;74.40;99711.17;1713064;83;21109;-42
2022/08/11 05:59:35;;;;;;;5.80;3.70;;;;;;;18.79;74.06;99717.14;1700421;84;20969;-42
2022/08/11 06:02:05;;;;;;;5.33;3.83;;;;;;;18.86;74.22;99722.00;1712890;83;21033;-42
2022/08/11 06:04:32;;;;;;;7.40;4.12;;;;;;;18.97;74.07;99724.66;1700394;84;25542;-42
2022/08/11 06:07:09;;;;;;;6.28;3.87;;;;;;;19.04;73.71;99720.45;1713132;83;20996;-42
2022/08/11 06:09:45;;;;;;;7.05;4.20;;;;;;;19.11;73.11;99724.52;1700503;84;21074;-42
2022/08/11 06:12:26;;;;;;;6.83;4.85;;;;;;;19.16;72.83;99716.42;1716230;83;21446;-42
2022/08/11 06:14:55;;;;;;;5.80;4.80;;;;;;;19.18;72.54;99720.30;1687370;85;21000;-42
2022/08/11 06:17:24;;;;;;;5.90;4.70;;;;;;;19.22;72.64;99721.05;1687087;85;21075;-42
2022/08/11 06:19:56;;;;;;;7.07;4.43;;;;;;;19.28;72.85;99723.54;1687608;85;21052;-42
2022/08/11 06:22:20;;;;;;;5.62;4.67;;;;;;;19.34;72.61;99731.53;1687230;85;23155;-42
2022/08/11 06:24:57;;;;;;;8.15;4.58;;;;;;;19.40;72.77;99728.53;1687319;85;21785;-42
2022/08/11 06:27:25;;;;;;;7.12;4.80;;;;;;;19.48;72.42;99732.78;1687434;85;21703;-42
2022/08/11 06:29:53;;;;;;;5.90;4.60;;;;;;;19.51;72.12;99725.08;1687232;85;21055;-42
2022/08/11 06:32:29;;;;;;;5.72;4.53;;;;;;;19.56;72.10;99733.47;1687299;85;21035;-42
2022/08/11 06:35:16;;;;;;;5.25;4.70;;;;;;;19.60;71.80;99749.36;1687502;85;21886;-42
2022/08/11 06:38:16;;;;;;;6.08;4.65;;;;;;;19.63;71.83;99756.77;1687660;85;21000;-42
2022/08/11 06:44:04;;;;;;;6.22;5.03;;;;;;;19.80;71.99;99779.78;1687656;85;21060;-42
2022/08/11 06:46:38;;;;;;;6.95;5.25;;;;;;;19.83;71.57;99782.48;1687656;85;21104;-42
2022/08/11 06:51:10;;;;;;;5.65;4.92;;;;;;;19.86;71.38;99773.98;1687582;85;21796;-42
2022/08/11 06:51:39;;;;;;;5.75;4.83;;;;;;;19.90;71.44;99760.37;1683633;85;21621;-42
2022/08/11 06:54:10;;;;;;;7.87;5.40;;;;;;;19.93;71.26;99752.68;1687298;85;20996;-42
2022/08/11 07:02:24;;;;;;;5.42;4.90;;;;;;;19.89;70.87;99749.80;1687332;85;21139;-42
2022/08/11 07:05:00;;;;;;;10.38;5.40;;;;;;;19.87;70.98;99743.91;1687371;85;21107;-42
2022/08/11 07:16:51;;;;;;;6.42;5.10;;;;;;;19.84;71.75;99759.88;1687351;85;21818;-43
2022/08/11 07:30:43;;;;;;;9.68;5.47;;;;;;;19.90;72.33;99734.82;1687285;85;21265;-43
2022/08/11 07:33:10;;;;;;;7.15;5.47;;;;;;;19.90;72.53;99725.97;1687304;85;20940;-43
2022/08/11 07:35:47;;;;;;;7.28;4.97;;;;;;;19.91;72.77;99715.75;1687662;85;21027;-43
2022/08/11 07:38:22;;;;;;;6.05;5.35;;;;;;;19.91;72.67;99706.11;1687317;85;20988;-43
2022/08/11 07:40:50;;;;;;;6.42;5.53;;;;;;;19.90;72.93;99699.05;1687663;85;21028;-42
2022/08/11 07:43:17;;;;;;;6.62;5.85;;;;;;;19.88;73.08;99684.34;1687383;85;21099;-43
2022/08/11 07:54:04;;;;;;;7.08;5.60;;;;;;;19.73;73.56;99671.19;1687398;85;21020;-43
2022/08/11 07:56:35;;;;;;;7.85;6.00;;;;;;;19.69;73.92;99682.25;1687434;85;21334;-43
2022/08/11 08:18:26;;;;;;;6.35;5.70;;;;;;;19.41;75.30;99726.56;1692459;84;21005;-42
2022/08/11 08:20:55;;;;;;;6.60;6.00;;;;;;;19.44;75.41;99729.30;1688561;84;21033;-43
2022/08/11 08:23:34;;;;;;;7.50;6.00;;;;;;;19.49;75.60;99723.34;1692496;84;21713;-43
2022/08/11 08:26:03;;;;;;;7.15;6.10;;;;;;;19.50;75.42;99729.63;1692515;84;21041;-42
2022/08/11 08:28:30;;;;;;;7.90;6.50;;;;;;;19.49;75.70;99739.84;1692685;84;21320;-42
2022/08/11 08:30:57;;;;;;;8.73;5.33;;;;;;;19.53;75.86;99751.58;1666657;84;21076;-43
2022/08/11 08:33:29;;;;;;;6.65;5.87;;;;;;;19.56;75.86;99751.97;1692553;84;21015;-43
2022/08/11 08:36:12;;;;;;;9.33;5.72;;;;;;;19.56;75.79;99752.72;1692669;84;21084;-43
2022/08/11 08:38:47;;;;;;;7.08;5.78;;;;;;;19.56;75.96;99749.22;1692399;84;21030;-42
2022/08/11 08:41:17;;;;;;;7.75;5.72;;;;;;;19.58;76.04;99754.48;1692763;84;22407;-42
2022/08/11 08:43:46;;;;;;;6.87;5.90;;;;;;;19.59;76.19;99748.38;1667608;84;21049;-43
2022/08/11 08:46:12;;;;;;;6.03;5.42;;;;;;;19.62;76.28;99746.17;1692899;84;21568;-42
2022/08/11 08:48:40;;;;;;;6.80;5.85;;;;;;;19.63;76.14;99742.24;1692758;84;21230;-42
2022/08/11 08:54:01;;;;;;;7.08;5.50;;;;;;;19.73;76.27;99742.72;1692643;84;21060;-42
2022/08/11 08:56:28;;;;;;;5.83;5.10;;;;;;;19.76;76.52;99746.79;1692639;84;21025;-42
2022/08/11 08:58:56;;;;;;;6.83;5.85;;;;;;;19.81;76.50;99763.44;1692712;84;21551;-43
2022/08/11 09:01:24;;;;;;;6.55;5.42;;;;;;;19.86;76.33;99779.48;1692612;84;21262;-43
2022/08/11 09:03:51;;;;;;;7.12;5.67;;;;;;;19.92;76.03;99775.88;1692443;84;21115;-43
2022/08/11 09:06:18;;;;;;;6.00;5.40;;;;;;;19.97;75.38;99782.90;1692399;84;21025;-43
2022/08/11 09:08:45;;;;;;;6.35;5.75;;;;;;;19.98;75.16;99776.21;1692248;84;21579;-42
2022/08/11 09:13:58;;;;;;;7.35;6.28;;;;;;;19.90;75.26;99778.84;1700582;84;21102;-42
2022/08/11 09:16:25;;;;;;;9.08;6.37;;;;;;;19.85;75.43;99777.33;1700567;84;21028;-42
2022/08/11 09:18:53;;;;;;;7.87;6.87;;;;;;;19.86;75.67;99776.15;1700517;84;21111;-42
2022/08/11 09:21:21;;;;;;;7.08;6.30;;;;;;;19.91;76.10;99773.53;1700461;84;21056;-42
2022/08/11 09:29:14;;;;;;;9.73;7.25;;;;;;;20.09;75.71;99747.17;1671557;84;21056;-42
2022/08/11 09:31:41;;;;;;;12.88;7.17;;;;;;;20.12;75.84;99744.96;1700650;84;21040;-43
2022/08/11 09:34:10;;;;;;;8.35;7.30;;;;;;;20.16;76.01;99748.44;1700619;84;21033;-43
2022/08/11 09:42:11;;;;;;;11.80;6.17;;;;;;;20.37;76.20;99751.72;1700515;84;21506;-43
2022/08/11 09:44:51;;;;;;;7.25;6.03;;;;;;;20.55;76.07;99752.03;1700844;84;21526;-42
2022/08/11 09:47:24;;;;;;;7.20;6.40;;;;;;;20.69;75.62;99755.34;1695309;84;21085;-42
2022/08/11 09:50:01;;;;;;;9.48;6.28;;;;;;;20.88;75.42;99749.72;1700914;84;21108;-42
2022/08/11 09:52:31;;;;;;;7.20;6.47;;;;;;;21.09;75.44;99745.23;1701063;84;21531;-42
2022/08/11 09:54:58;;;;;;;8.35;5.67;;;;;;;21.24;74.04;99741.65;1700843;84;21063;-43
2022/08/11 10:00:13;;;;;;;7.70;5.55;;;;;;;21.50;72.86;99746.26;1700741;84;21092;-42
2022/08/11 10:02:46;;;;;;;8.13;5.72;;;;;;;21.68;72.65;99755.59;1700965;84;21562;-43
2022/08/11 10:08:04;;;;;;;5.58;5.08;;;;;;;21.93;71.64;99757.84;1700753;84;20988;-43
2022/08/11 10:10:36;;;;;;;5.90;5.30;;;;;;;22.03;70.95;99750.72;1700556;84;21044;-43
2022/08/11 10:13:09;;;;;;;7.75;5.55;;;;;;;22.17;70.50;99750.26;1696048;83;21554;-43
2022/08/11 10:15:42;;;;;;;7.92;5.30;;;;;;;22.27;69.87;99752.01;1695167;84;21045;-42
2022/08/11 10:21:06;;;;;;;5.33;4.83;;;;;;;22.31;69.49;99743.81;1695057;84;21109;-43
2022/08/11 10:33:58;;;;;;;8.05;5.03;;;;;;;22.43;68.82;99738.20;1695166;84;21056;-43
2022/08/11 10:34:23;;;;;;;7.58;4.67;;;;;;;22.59;68.88;99739.60;1694986;84;21061;-43
2022/08/11 10:36:50;;;;;;;6.27;4.80;;;;;;;22.66;68.07;99748.31;1695384;84;21032;-43
2022/08/11 10:39:19;;;;;;;5.12;4.60;;;;;;;22.64;67.88;99739.69;1695199;84;21646;-43
2022/08/11 10:44:43;;;;;;;6.28;4.70;;;;;;;22.63;68.43;99735.36;1695350;84;21280;-43
2022/08/11 11:01:00;;;;;;;6.45;5.28;;;;;;;22.17;70.76;99709.61;1694925;84;21052;-43
2022/08/11 11:03:29;;;;;;;5.78;5.10;;;;;;;22.07;70.90;99718.28;1695102;84;21061;-43
2022/08/11 11:06:24;;;;;;;5.75;4.92;;;;;;;21.99;71.09;99723.02;1695110;84;21561;-43
2022/08/11 11:08:56;;;;;;;6.47;5.17;;;;;;;21.93;71.81;99719.98;1695091;84;21080;-43
2022/08/11 11:19:55;;;;;;;6.87;5.40;;;;;;;21.74;73.42;99721.34;1700609;84;21045;-43
2022/08/11 11:22:37;;;;;;;5.62;5.12;;;;;;;21.75;73.70;99717.39;1700588;84;21033;-43
2022/08/11 11:25:36;;;;;;;5.60;5.10;;;;;;;21.78;74.09;99706.30;1700611;84;21234;-43
2022/08/11 11:28:44;;;;;;;5.60;5.10;;;;;;;21.84;73.77;99702.41;1700526;84;21560;-42
2022/08/11 11:31:44;;;;;;;5.97;5.42;;;;;;;21.85;73.05;99703.97;1700777;84;20957;-42
2022/08/11 11:34:53;;;;;;;5.97;5.47;;;;;;;21.89;73.03;99697.16;1700731;84;21053;-43
2022/08/11 11:37:22;;;;;;;5.40;4.85;;;;;;;22.02;73.32;99696.73;1700841;84;21037;-42
2022/08/11 11:39:52;;;;;;;5.85;5.17;;;;;;;22.18;72.85;99683.53;1700932;84;21890;-42
2022/08/11 11:42:19;;;;;;;6.17;5.58;;;;;;;22.35;71.98;99690.64;1698554;84;21545;-42
2022/08/11 11:44:46;;;;;;;8.18;5.47;;;;;;;22.52;71.24;99685.28;1700579;84;21050;-42
2022/08/11 11:47:13;;;;;;;5.58;5.08;;;;;;;22.71;70.47;99680.89;1677492;84;20984;-43
2022/08/11 11:49:48;;;;;;;6.40;4.83;;;;;;;22.86;70.62;99672.41;1669654;86;21123;-43
2022/08/11 11:52:17;;;;;;;5.50;5.00;;;;;;;23.02;69.44;99668.05;1668690;86;21116;-43
2022/08/11 11:54:49;;;;;;;5.17;4.62;;;;;;;23.14;69.14;99667.34;1669639;86;21019;-43
2022/08/11 12:02:52;;;;;;;7.75;5.50;;;;;;;23.56;67.24;99667.55;1627833;86;21044;-43
2022/08/11 12:05:19;;;;;;;5.85;5.33;;;;;;;23.66;66.59;99660.92;1628739;88;21165;-42
2022/08/11 12:10:31;;;;;;;7.25;5.05;;;;;;;24.07;66.33;99655.12;1683219;85;21029;-43
2022/08/11 12:15:46;;;;;;;5.28;4.78;;;;;;;24.59;64.39;99663.73;1662795;85;21090;-43
2022/08/11 12:18:14;;;;;;;5.83;4.65;;;;;;;24.80;64.56;99665.63;1680565;85;21109;-43
2022/08/11 12:20:44;;;;;;;5.83;4.50;;;;;;;24.99;63.63;99670.91;1680050;85;20942;-42
2022/08/11 12:28:44;;;;;;;4.95;4.45;;;;;;;25.92;60.89;99689.14;1663617;85;21105;-43
2022/08/11 12:31:11;;;;;;;4.72;4.22;;;;;;;26.08;59.90;99681.20;1679998;85;21176;-43
2022/08/11 12:33:45;;;;;;;4.37;4.00;;;;;;;26.23;60.42;99683.60;1680076;85;20958;-43
2022/08/11 12:36:08;;;;;;;7.40;4.20;;;;;;;26.38;59.83;99678.38;1678823;85;21620;-43
2022/08/11 12:38:35;;;;;;;4.55;4.15;;;;;;;26.53;58.92;99676.44;1680087;85;21062;-42
2022/08/11 12:46:38;;;;;;;5.40;4.40;;;;;;;26.63;59.58;99671.80;1680123;85;21005;-43
2022/08/11 12:52:07;;;;;;;5.67;4.22;;;;;;;27.18;57.90;99667.70;1680208;85;21026;-42
2022/08/11 12:55:12;;;;;;;4.15;3.67;;;;;;;27.69;56.66;99666.41;1680549;85;21100;-43
2022/08/11 13:06:01;;;;;;;4.42;3.85;;;;;;;29.44;51.56;99667.07;1679956;85;21633;-43
2022/08/11 13:08:30;;;;;;;4.40;4.00;;;;;;;29.86;49.81;99667.41;1680500;85;21073;-43
2022/08/11 13:13:46;;;;;;;4.33;4.03;;;;;;;30.37;48.44;99670.50;1693976;84;20959;-43
2022/08/11 13:16:13;;;;;;;4.40;4.00;;;;;;;30.67;47.10;99668.39;1700722;84;21040;-43
2022/08/11 13:18:41;;;;;;;4.72;4.00;;;;;;;30.83;46.08;99668.47;1672564;85;21053;-43
2022/08/11 13:21:10;;;;;;;4.40;4.00;;;;;;;30.88;45.73;99659.38;1672393;85;21017;-43
2022/08/11 13:23:39;;;;;;;5.37;3.90;;;;;;;30.88;46.13;99661.55;1672275;85;21151;-43
2022/08/11 13:27:47;;;;;;;5.75;4.37;;;;;;;30.86;45.90;99679.45;1779395;79;22423;-43
2022/08/11 13:33:00;;;;;;;6.45;4.10;;;;;;;30.39;45.64;99684.02;1739130;82;23129;-43
2022/08/11 13:35:30;;;;;;;4.85;4.37;;;;;;;30.03;46.61;99689.44;1739166;82;20970;-43
2022/08/11 13:38:00;;;;;;;5.22;4.72;;;;;;;29.86;47.45;99691.17;1735060;82;21918;-43
2022/08/11 13:40:27;;;;;;;7.05;4.40;;;;;;;29.78;47.74;99690.16;1709527;84;20989;-43
2022/08/11 13:42:54;;;;;;;5.12;4.62;;;;;;;29.68;47.80;99691.50;1709527;84;20939;-43
2022/08/11 13:45:25;;;;;;;5.20;4.50;;;;;;;29.64;47.84;99683.17;1709276;83;23169;-43
2022/08/11 13:47:56;;;;;;;8.95;4.97;;;;;;;29.59;48.29;99690.20;1704552;84;20946;-43
2022/08/11 13:51:29;;;;;;;5.45;4.90;;;;;;;29.53;48.37;99691.38;1709797;83;21520;-43
2022/08/11 13:52:53;;;;;;;5.83;5.15;;;;;;;29.40;48.07;99683.25;1706873;84;21030;-43
2022/08/11 13:55:21;;;;;;;5.12;4.72;;;;;;;29.22;48.26;99686.97;1709344;84;21027;-43
2022/08/11 13:57:51;;;;;;;6.25;5.08;;;;;;;29.01;48.87;99688.06;1709646;83;21202;-43
2022/08/11 14:00:19;;;;;;;5.60;5.10;;;;;;;28.73;48.90;99686.10;1709214;82;21575;-43
2022/08/11 14:02:48;;;;;;;8.05;5.55;;;;;;;28.40;49.52;99686.74;1709538;84;21507;-43
2022/08/11 14:05:27;;;;;;;5.70;5.08;;;;;;;28.06;50.19;99687.34;1710027;83;20978;-43
2022/08/11 14:08:01;;;;;;;6.28;4.70;;;;;;;27.79;51.04;99673.48;1709946;83;21951;-43
2022/08/11 14:10:31;;;;;;;5.78;5.20;;;;;;;27.48;51.82;99677.88;1709791;84;21195;-43
2022/08/11 14:15:47;;;;;;;6.00;5.40;;;;;;;26.96;53.46;99675.44;1709677;84;21026;-43
2022/08/11 14:18:21;;;;;;;5.95;5.45;;;;;;;26.71;54.13;99682.80;1709381;84;21007;-43
2022/08/11 14:23:45;;;;;;;6.28;5.62;;;;;;;26.38;55.23;99683.20;1709369;83;21090;-43
2022/08/11 14:26:25;;;;;;;6.20;5.70;;;;;;;26.20;55.72;99676.13;1712729;82;21034;-43
2022/08/11 14:28:58;;;;;;;;;;;;;;;26.05;56.07;99673.14;1703669;83;20999;-43
2022/08/11 14:31:27;;;;;;;13.60;6.20;;;;;;;25.91;56.59;99672.31;1724078;83;20466;-43
2022/08/11 14:33:56;;;;;;;6.13;5.53;;;;;;;25.71;56.96;99664.95;1725051;83;21026;-43
2022/08/11 14:36:25;;;;;;;6.47;5.97;;;;;;;25.60;57.45;99669.55;1725043;83;21177;-43
2022/08/11 14:38:54;;;;;;;8.50;6.10;;;;;;;25.52;57.62;99672.38;1724495;83;20921;-43
2022/08/11 14:47:06;;;;;;;7.75;6.17;;;;;;;25.31;58.88;99679.50;1724895;83;21085;-43
2022/08/11 14:49:36;;;;;;;6.83;6.17;;;;;;;25.27;59.17;99673.92;1724536;83;21084;-43
2022/08/11 14:52:06;;;;;;;6.70;6.05;;;;;;;25.27;59.54;99672.53;1724413;83;21085;-43
2022/08/11 14:57:19;;;;;;;7.20;6.55;;;;;;;25.31;59.82;99668.41;1724188;83;20962;-43
2022/08/11 14:59:48;;;;;;;6.58;5.90;;;;;;;25.33;60.11;99659.60;1724406;83;21058;-43
2022/08/11 15:05:01;;;;;;;7.08;6.37;;;;;;;25.70;59.94;99662.04;1724494;83;21805;-43
2022/08/11 15:07:28;;;;;;;10.23;6.37;;;;;;;25.92;59.01;99654.42;1724466;83;21525;-43
2022/08/11 15:10:02;;;;;;;6.50;5.90;;;;;;;26.07;58.42;99663.75;1724202;83;21354;-43
2022/08/11 15:12:29;;;;;;;7.50;5.53;;;;;;;26.13;58.22;99660.53;1691757;84;21098;-43
2022/08/11 15:17:42;;;;;;;6.28;5.78;;;;;;;26.10;57.80;99670.38;1690033;84;21515;-43
2022/08/11 15:25:55;;;;;;;6.75;6.10;;;;;;;25.76;58.44;99674.08;1672934;85;21386;-43
2022/08/11 15:37:25;;;;;;;9.25;6.90;;;;;;;25.53;59.55;99673.31;1658151;86;21506;-43
2022/08/11 15:39:35;;;;;;;9.23;6.62;;;;;;;25.20;60.25;99672.16;1653410;86;21112;-43
2022/08/11 15:47:56;;;;;;;9.40;6.90;;;;;;;24.99;60.99;99670.91;1657931;86;21096;-43
2022/08/11 15:50:29;;;;;;;7.72;6.33;;;;;;;24.94;61.08;99671.48;1657711;86;21099;-43
2022/08/11 15:53:00;;;;;;;7.83;6.47;;;;;;;24.93;61.30;99674.73;1658169;86;21104;-43
2022/08/11 15:55:28;;;;;;;7.42;6.70;;;;;;;24.90;61.52;99675.00;1657974;86;21330;-43
2022/08/11 16:06:12;;;;;;;10.50;6.67;;;;;;;24.79;61.78;99684.25;1657940;86;21080;-43
2022/08/11 16:08:39;;;;;;;8.53;6.80;;;;;;;24.79;61.95;99684.86;1658225;86;21167;-43
2022/08/11 16:11:07;;;;;;;8.18;7.05;;;;;;;24.77;62.04;99677.62;1652985;86;21103;-43
2022/08/11 16:16:15;;;;;;;7.40;6.45;;;;;;;24.69;62.48;99675.07;1658056;86;21574;-43
2022/08/11 16:18:55;;;;;;;8.95;6.97;;;;;;;24.66;62.80;99680.14;1657856;86;21013;-43
2022/08/11 16:21:34;;;;;;;7.47;6.78;;;;;;;24.61;62.96;99679.31;1657818;86;21241;-43
2022/08/11 16:24:07;;;;;;;7.50;6.80;;;;;;;24.57;63.08;99677.28;1658070;86;21649;-43
2022/08/11 16:26:37;;;;;;;9.03;6.97;;;;;;;24.54;63.23;99675.41;1657645;85;21594;-43
2022/08/11 16:29:04;;;;;;;7.45;6.40;;;;;;;24.49;63.48;99676.58;1660833;86;21575;-43
2022/08/11 16:31:32;;;;;;;8.28;7.20;;;;;;;24.46;63.65;99673.30;1660902;85;21115;-43
2022/08/11 16:33:59;;;;;;;7.50;6.78;;;;;;;24.43;63.78;99674.98;1672621;85;21139;-43
2022/08/11 16:39:11;;;;;;;7.37;6.67;;;;;;;24.35;64.14;99677.79;1672910;85;21530;-43
2022/08/11 16:47:16;;;;;;;7.85;7.03;;;;;;;24.13;64.65;99678.28;1694302;84;21251;-43
2022/08/11 16:49:47;;;;;;;13.55;7.83;;;;;;;24.08;64.96;99679.61;1694507;84;21039;-43
2022/08/11 16:52:13;;;;;;;10.28;7.45;;;;;;;24.04;65.09;99686.48;1694278;84;21524;-43
2022/08/11 16:54:41;;;;;;;8.10;7.30;;;;;;;23.99;65.24;99685.05;1678160;84;20967;-43
2022/08/11 17:00:13;;;;;;;8.63;7.63;;;;;;;23.89;65.68;99687.52;1694388;84;23127;-43
2022/08/11 17:14:18;;;;;;;11.60;7.90;;;;;;;23.55;66.63;99687.35;1661775;84;21282;-43
2022/08/11 17:16:47;;;;;;;9.15;7.37;;;;;;;23.47;66.88;99690.16;1694309;84;21014;-43
2022/08/11 17:19:23;;;;;;;11.47;7.20;;;;;;;23.39;67.14;99686.77;1694770;84;21014;-43
2022/08/11 17:24:43;;;;;;;8.75;7.53;;;;;;;23.28;67.66;99691.24;1694635;84;21075;-43
2022/08/11 17:27:15;;;;;;;12.55;8.25;;;;;;;23.22;67.87;99686.06;1693859;84;21683;-43
2022/08/11 17:29:49;;;;;;;8.70;7.60;;;;;;;23.19;68.12;99687.55;1694676;84;21124;-43
2022/08/11 17:35:32;;;;;;;8.95;7.50;;;;;;;23.13;68.56;99689.30;1691753;84;21560;-42
2022/08/11 17:38:11;;;;;;;8.68;7.53;;;;;;;23.11;68.75;99691.70;1691820;84;21024;-43
2022/08/11 17:49:06;;;;;;;7.75;7.00;;;;;;;22.86;69.65;99691.75;1691800;84;21609;-43